Norwood, Massachusetts
Current Conditions -  °F | °C
As of 11:05 PM on Thursday 27 Nov 2014 (Local Time) from KOWD Reporting Station
Light Snow Light Snow  
Wind Chill: 24°   Ceiling: 2700
Heat Index: 30°   Visibility: 3mi
Dew Point: 27°   Wind: 6mph
Humidity: 88%   Direction: 310°NW
Pressure: 30.02"   Gusts: NA
Location:  42.2°N, 71.2°W
Report Text: KOWD 280405Z 31005KT 3SM -SN BR OVC027 M01/M03 A3002 RMK AO2 P0000 T10111028
Loading
Personal Weather Stations






























Interactive Weather Map New forecast layout! Learn more

10-Day Weather Forecast

Advertisements
Track Severe Weather on mobile